sensor_id;sensor_type;location;lat;lon;timestamp;P1;durP1;ratioP1;P2;durP2;ratioP2
69434;SDS011;56625;54.322;18.582;2024-01-16T16:43:48;18.80;;;5.20;;
69434;SDS011;56625;54.322;18.582;2024-01-16T16:46:18;18.50;;;5.50;;
69434;SDS011;56625;54.322;18.582;2024-01-16T16:48:49;17.80;;;5.50;;
69434;SDS011;56625;54.322;18.582;2024-01-16T16:51:20;16.50;;;5.80;;
69434;SDS011;56625;54.322;18.582;2024-01-16T16:53:50;20.10;;;6.60;;
69434;SDS011;56625;54.322;18.582;2024-01-16T16:56:19;19.50;;;6.40;;
69434;SDS011;56625;54.322;18.582;2024-01-16T16:58:51;21.70;;;6.10;;
69434;SDS011;56625;54.322;18.582;2024-01-16T17:01:20;20.00;;;6.10;;
69434;SDS011;56625;54.322;18.582;2024-01-16T17:03:48;17.60;;;6.00;;
69434;SDS011;56625;54.322;18.582;2024-01-16T17:06:20;21.50;;;6.00;;
69434;SDS011;56625;54.322;18.582;2024-01-16T17:08:49;21.50;;;5.40;;
69434;SDS011;56625;54.322;18.582;2024-01-16T17:11:17;20.60;;;6.10;;
69434;SDS011;56625;54.322;18.582;2024-01-16T17:13:45;18.20;;;6.00;;
69434;SDS011;56625;54.322;18.582;2024-01-16T17:16:14;20.40;;;6.40;;
69434;SDS011;56625;54.322;18.582;2024-01-16T17:18:46;24.30;;;7.00;;
69434;SDS011;56625;54.322;18.582;2024-01-16T17:21:15;21.80;;;6.70;;
69434;SDS011;56625;54.322;18.582;2024-01-16T17:23:44;22.40;;;7.40;;
69434;SDS011;56625;54.322;18.582;2024-01-16T17:26:13;24.50;;;7.10;;
69434;SDS011;56625;54.322;18.582;2024-01-16T17:28:41;23.80;;;7.10;;
69434;SDS011;56625;54.322;18.582;2024-01-16T17:31:10;24.30;;;7.40;;
69434;SDS011;56625;54.322;18.582;2024-01-16T17:33:39;23.30;;;7.80;;
69434;SDS011;56625;54.322;18.582;2024-01-16T17:36:07;30.10;;;8.90;;
69434;SDS011;56625;54.322;18.582;2024-01-16T17:38:39;21.80;;;8.00;;
69434;SDS011;56625;54.322;18.582;2024-01-16T17:41:08;27.90;;;8.90;;
69434;SDS011;56625;54.322;18.582;2024-01-16T17:43:39;24.40;;;7.50;;
69434;SDS011;56625;54.322;18.582;2024-01-16T17:46:08;21.50;;;7.30;;
69434;SDS011;56625;54.322;18.582;2024-01-16T17:48:36;24.10;;;7.50;;
69434;SDS011;56625;54.322;18.582;2024-01-16T17:51:07;21.90;;;6.50;;
69434;SDS011;56625;54.322;18.582;2024-01-16T17:53:36;20.80;;;7.20;;
69434;SDS011;56625;54.322;18.582;2024-01-16T17:56:07;21.10;;;6.70;;
69434;SDS011;56625;54.322;18.582;2024-01-16T17:58:36;25.90;;;7.70;;
69434;SDS011;56625;54.322;18.582;2024-01-16T18:01:04;22.30;;;6.70;;
69434;SDS011;56625;54.322;18.582;2024-01-16T18:03:39;21.20;;;6.60;;
69434;SDS011;56625;54.322;18.582;2024-01-16T18:06:14;23.60;;;6.20;;
69434;SDS011;56625;54.322;18.582;2024-01-16T18:08:45;17.60;;;5.70;;
69434;SDS011;56625;54.322;18.582;2024-01-16T18:11:14;26.90;;;8.30;;
69434;SDS011;56625;54.322;18.582;2024-01-16T18:13:43;28.70;;;9.60;;
69434;SDS011;56625;54.322;18.582;2024-01-16T18:16:11;33.30;;;10.60;;
69434;SDS011;56625;54.322;18.582;2024-01-16T18:18:41;27.40;;;9.50;;
69434;SDS011;56625;54.322;18.582;2024-01-16T18:21:11;24.90;;;8.00;;
69434;SDS011;56625;54.322;18.582;2024-01-16T18:23:40;29.30;;;9.00;;
69434;SDS011;56625;54.322;18.582;2024-01-16T18:26:11;25.10;;;8.10;;
69434;SDS011;56625;54.322;18.582;2024-01-16T18:28:39;23.00;;;7.30;;
69434;SDS011;56625;54.322;18.582;2024-01-16T18:31:11;25.50;;;8.30;;
69434;SDS011;56625;54.322;18.582;2024-01-16T18:33:40;25.50;;;7.80;;
69434;SDS011;56625;54.322;18.582;2024-01-16T18:36:08;25.60;;;7.50;;
69434;SDS011;56625;54.322;18.582;2024-01-16T18:38:38;20.80;;;6.20;;
69434;SDS011;56625;54.322;18.582;2024-01-16T18:41:08;24.30;;;7.00;;
69434;SDS011;56625;54.322;18.582;2024-01-16T18:43:37;22.10;;;7.10;;
69434;SDS011;56625;54.322;18.582;2024-01-16T18:46:05;31.40;;;9.10;;
69434;SDS011;56625;54.322;18.582;2024-01-16T18:48:33;29.80;;;9.00;;
69434;SDS011;56625;54.322;18.582;2024-01-16T18:51:02;24.00;;;7.70;;
69434;SDS011;56625;54.322;18.582;2024-01-16T18:53:32;28.40;;;8.90;;
69434;SDS011;56625;54.322;18.582;2024-01-16T18:56:00;27.70;;;7.90;;
69434;SDS011;56625;54.322;18.582;2024-01-16T18:58:29;22.90;;;7.90;;
69434;SDS011;56625;54.322;18.582;2024-01-16T19:00:57;27.00;;;8.70;;
69434;SDS011;56625;54.322;18.582;2024-01-16T19:03:27;24.10;;;7.90;;
69434;SDS011;56625;54.322;18.582;2024-01-16T19:05:55;24.00;;;8.80;;
69434;SDS011;56625;54.322;18.582;2024-01-16T19:08:24;23.50;;;7.80;;
69434;SDS011;56625;54.322;18.582;2024-01-16T19:10:53;22.70;;;7.80;;
69434;SDS011;56625;54.322;18.582;2024-01-16T19:13:21;24.90;;;8.60;;
69434;SDS011;56625;54.322;18.582;2024-01-16T19:15:52;28.00;;;8.30;;
69434;SDS011;56625;54.322;18.582;2024-01-16T19:18:21;29.80;;;9.50;;
69434;SDS011;56625;54.322;18.582;2024-01-16T19:20:50;20.00;;;6.10;;
69434;SDS011;56625;54.322;18.582;2024-01-16T19:23:19;26.90;;;9.40;;
69434;SDS011;56625;54.322;18.582;2024-01-16T19:25:48;25.90;;;9.20;;
69434;SDS011;56625;54.322;18.582;2024-01-16T19:28:16;31.30;;;10.60;;
69434;SDS011;56625;54.322;18.582;2024-01-16T19:30:45;34.00;;;12.20;;
69434;SDS011;56625;54.322;18.582;2024-01-16T19:33:13;33.30;;;11.20;;
69434;SDS011;56625;54.322;18.582;2024-01-16T19:35:41;37.30;;;12.30;;
69434;SDS011;56625;54.322;18.582;2024-01-16T19:47:38;26.20;;;10.90;;
69434;SDS011;56625;54.322;18.582;2024-01-16T19:50:09;22.80;;;8.30;;
69434;SDS011;56625;54.322;18.582;2024-01-16T19:52:51;22.20;;;6.40;;
69434;SDS011;56625;54.322;18.582;2024-01-16T19:55:23;27.10;;;10.10;;
69434;SDS011;56625;54.322;18.582;2024-01-16T19:57:55;27.50;;;9.10;;
69434;SDS011;56625;54.322;18.582;2024-01-16T20:00:25;34.40;;;11.00;;
69434;SDS011;56625;54.322;18.582;2024-01-16T20:02:54;35.30;;;12.40;;
69434;SDS011;56625;54.322;18.582;2024-01-16T20:05:23;33.60;;;12.20;;
69434;SDS011;56625;54.322;18.582;2024-01-16T20:08:11;31.40;;;11.90;;
69434;SDS011;56625;54.322;18.582;2024-01-16T20:10:39;35.70;;;11.50;;
69434;SDS011;56625;54.322;18.582;2024-01-16T20:13:08;37.20;;;12.70;;
69434;SDS011;56625;54.322;18.582;2024-01-16T20:15:36;40.00;;;14.40;;
69434;SDS011;56625;54.322;18.582;2024-01-16T20:18:04;40.70;;;13.50;;
69434;SDS011;56625;54.322;18.582;2024-01-16T20:20:36;35.60;;;13.30;;
69434;SDS011;56625;54.322;18.582;2024-01-16T20:23:06;39.70;;;13.90;;
69434;SDS011;56625;54.322;18.582;2024-01-16T20:25:36;35.90;;;11.90;;
69434;SDS011;56625;54.322;18.582;2024-01-16T20:28:04;40.20;;;11.90;;
69434;SDS011;56625;54.322;18.582;2024-01-16T20:30:35;38.80;;;13.40;;
69434;SDS011;56625;54.322;18.582;2024-01-16T20:33:04;32.40;;;11.00;;
69434;SDS011;56625;54.322;18.582;2024-01-16T20:35:32;31.30;;;10.40;;
69434;SDS011;56625;54.322;18.582;2024-01-16T20:38:00;23.60;;;8.40;;
69434;SDS011;56625;54.322;18.582;2024-01-16T20:40:28;34.70;;;9.70;;
69434;SDS011;56625;54.322;18.582;2024-01-16T20:42:56;34.40;;;10.50;;
69434;SDS011;56625;54.322;18.582;2024-01-16T20:45:24;35.70;;;11.70;;
69434;SDS011;56625;54.322;18.582;2024-01-16T20:47:52;31.90;;;11.50;;
69434;SDS011;56625;54.322;18.582;2024-01-16T20:50:20;36.60;;;11.80;;
69434;SDS011;56625;54.322;18.582;2024-01-16T20:52:49;28.90;;;11.20;;
69434;SDS011;56625;54.322;18.582;2024-01-16T20:55:17;39.30;;;11.80;;
69434;SDS011;56625;54.322;18.582;2024-01-16T20:57:45;28.50;;;10.40;;
69434;SDS011;56625;54.322;18.582;2024-01-16T21:00:14;32.00;;;10.50;;
69434;SDS011;56625;54.322;18.582;2024-01-16T21:02:43;29.40;;;9.70;;
69434;SDS011;56625;54.322;18.582;2024-01-16T21:05:12;29.20;;;9.30;;
69434;SDS011;56625;54.322;18.582;2024-01-16T21:07:40;28.20;;;10.20;;
69434;SDS011;56625;54.322;18.582;2024-01-16T21:10:09;31.30;;;9.40;;
69434;SDS011;56625;54.322;18.582;2024-01-16T21:12:37;28.10;;;9.90;;
69434;SDS011;56625;54.322;18.582;2024-01-16T21:15:06;27.90;;;9.70;;
69434;SDS011;56625;54.322;18.582;2024-01-16T21:17:35;28.20;;;9.10;;
69434;SDS011;56625;54.322;18.582;2024-01-16T21:20:04;28.60;;;9.40;;
69434;SDS011;56625;54.322;18.582;2024-01-16T21:22:33;30.80;;;9.10;;
69434;SDS011;56625;54.322;18.582;2024-01-16T21:25:04;23.60;;;8.60;;
69434;SDS011;56625;54.322;18.582;2024-01-16T21:27:33;29.50;;;9.90;;
69434;SDS011;56625;54.322;18.582;2024-01-16T21:30:01;27.80;;;9.40;;
69434;SDS011;56625;54.322;18.582;2024-01-16T21:32:30;28.00;;;9.80;;
69434;SDS011;56625;54.322;18.582;2024-01-16T21:34:59;28.40;;;8.80;;
69434;SDS011;56625;54.322;18.582;2024-01-16T21:37:27;19.00;;;7.00;;
69434;SDS011;56625;54.322;18.582;2024-01-16T21:39:55;22.50;;;7.90;;
69434;SDS011;56625;54.322;18.582;2024-01-16T21:42:23;27.30;;;8.70;;
69434;SDS011;56625;54.322;18.582;2024-01-16T21:44:51;23.60;;;8.20;;
69434;SDS011;56625;54.322;18.582;2024-01-16T21:47:21;29.20;;;9.40;;
69434;SDS011;56625;54.322;18.582;2024-01-16T21:49:52;25.70;;;9.20;;
69434;SDS011;56625;54.322;18.582;2024-01-16T21:52:21;29.40;;;9.80;;
69434;SDS011;56625;54.322;18.582;2024-01-16T21:54:49;25.80;;;8.80;;
69434;SDS011;56625;54.322;18.582;2024-01-16T21:57:18;24.80;;;8.20;;
69434;SDS011;56625;54.322;18.582;2024-01-16T21:59:47;27.50;;;9.30;;
69434;SDS011;56625;54.322;18.582;2024-01-16T22:02:15;31.30;;;9.00;;
69434;SDS011;56625;54.322;18.582;2024-01-16T22:04:45;24.10;;;8.30;;
69434;SDS011;56625;54.322;18.582;2024-01-16T22:07:14;27.50;;;8.30;;
69434;SDS011;56625;54.322;18.582;2024-01-16T22:09:42;24.10;;;8.20;;
69434;SDS011;56625;54.322;18.582;2024-01-16T22:12:10;21.30;;;7.30;;
69434;SDS011;56625;54.322;18.582;2024-01-16T22:14:38;23.00;;;7.70;;
69434;SDS011;56625;54.322;18.582;2024-01-16T22:17:07;21.70;;;7.20;;
69434;SDS011;56625;54.322;18.582;2024-01-16T22:19:35;20.90;;;6.50;;
69434;SDS011;56625;54.322;18.582;2024-01-16T22:22:03;20.90;;;7.90;;
69434;SDS011;56625;54.322;18.582;2024-01-16T22:24:31;20.10;;;7.00;;
69434;SDS011;56625;54.322;18.582;2024-01-16T22:27:00;21.20;;;6.70;;
69434;SDS011;56625;54.322;18.582;2024-01-16T22:29:28;22.80;;;6.80;;
69434;SDS011;56625;54.322;18.582;2024-01-16T22:31:56;21.10;;;7.10;;
69434;SDS011;56625;54.322;18.582;2024-01-16T22:34:25;25.60;;;7.10;;
69434;SDS011;56625;54.322;18.582;2024-01-16T22:36:53;21.40;;;7.10;;
69434;SDS011;56625;54.322;18.582;2024-01-16T22:39:22;20.40;;;6.30;;
69434;SDS011;56625;54.322;18.582;2024-01-16T22:41:52;26.10;;;8.10;;
69434;SDS011;56625;54.322;18.582;2024-01-16T22:44:20;24.80;;;8.00;;
69434;SDS011;56625;54.322;18.582;2024-01-16T22:46:50;23.20;;;8.10;;
69434;SDS011;56625;54.322;18.582;2024-01-16T22:49:18;23.20;;;7.70;;
69434;SDS011;56625;54.322;18.582;2024-01-16T22:51:46;24.80;;;8.20;;
69434;SDS011;56625;54.322;18.582;2024-01-16T22:54:15;27.20;;;7.80;;
69434;SDS011;56625;54.322;18.582;2024-01-16T22:56:43;30.10;;;9.10;;
69434;SDS011;56625;54.322;18.582;2024-01-16T22:59:11;22.50;;;7.90;;
69434;SDS011;56625;54.322;18.582;2024-01-16T23:01:40;26.10;;;8.50;;
69434;SDS011;56625;54.322;18.582;2024-01-16T23:04:09;31.90;;;8.70;;
69434;SDS011;56625;54.322;18.582;2024-01-16T23:06:37;26.70;;;8.50;;
69434;SDS011;56625;54.322;18.582;2024-01-16T23:09:06;24.40;;;7.80;;
69434;SDS011;56625;54.322;18.582;2024-01-16T23:11:34;25.40;;;8.60;;
69434;SDS011;56625;54.322;18.582;2024-01-16T23:14:03;27.60;;;8.80;;
69434;SDS011;56625;54.322;18.582;2024-01-16T23:16:31;24.90;;;8.20;;
69434;SDS011;56625;54.322;18.582;2024-01-16T23:19:00;24.40;;;6.90;;
69434;SDS011;56625;54.322;18.582;2024-01-16T23:21:28;20.30;;;6.00;;
69434;SDS011;56625;54.322;18.582;2024-01-16T23:23:56;15.20;;;5.40;;
69434;SDS011;56625;54.322;18.582;2024-01-16T23:26:25;18.70;;;4.90;;
69434;SDS011;56625;54.322;18.582;2024-01-16T23:28:54;17.50;;;5.50;;
69434;SDS011;56625;54.322;18.582;2024-01-16T23:31:22;15.20;;;4.60;;
69434;SDS011;56625;54.322;18.582;2024-01-16T23:33:51;18.50;;;5.80;;
69434;SDS011;56625;54.322;18.582;2024-01-16T23:36:19;21.30;;;6.90;;
69434;SDS011;56625;54.322;18.582;2024-01-16T23:38:47;25.50;;;7.00;;
69434;SDS011;56625;54.322;18.582;2024-01-16T23:41:15;19.20;;;6.30;;
69434;SDS011;56625;54.322;18.582;2024-01-16T23:43:44;23.40;;;7.40;;
69434;SDS011;56625;54.322;18.582;2024-01-16T23:46:13;22.00;;;6.50;;
69434;SDS011;56625;54.322;18.582;2024-01-16T23:48:41;18.50;;;6.50;;
69434;SDS011;56625;54.322;18.582;2024-01-16T23:51:12;20.00;;;6.40;;
69434;SDS011;56625;54.322;18.582;2024-01-16T23:53:40;22.40;;;7.20;;
69434;SDS011;56625;54.322;18.582;2024-01-16T23:56:08;11.90;;;4.10;;
69434;SDS011;56625;54.322;18.582;2024-01-16T23:58:38;19.60;;;5.70;;
